createdAt,value
2018-09-19T00:01:52.594Z,8.60
2018-09-19T00:04:57.534Z,8.07
2018-09-19T00:08:02.135Z,9.07
2018-09-19T00:11:07.019Z,8.80
2018-09-19T00:14:12.139Z,8.70
2018-09-19T00:17:16.909Z,9.33
2018-09-19T00:20:22.589Z,8.30
2018-09-19T00:23:27.067Z,8.63
2018-09-19T00:26:31.809Z,8.43
2018-09-19T00:29:36.357Z,9.70
2018-09-19T00:32:41.029Z,8.63
2018-09-19T00:35:45.651Z,8.37
2018-09-19T00:38:50.236Z,9.83
2018-09-19T00:41:56.414Z,8.97
2018-09-19T00:45:01.003Z,8.73
2018-09-19T00:48:05.611Z,9.00
2018-09-19T00:51:10.320Z,8.47
2018-09-19T00:54:15.010Z,8.87
2018-09-19T00:57:19.714Z,9.10
2018-09-19T01:00:24.334Z,8.47
2018-09-19T01:03:29.003Z,9.37
2018-09-19T01:06:33.684Z,9.50
2018-09-19T01:09:38.431Z,8.97
2018-09-19T01:12:43.045Z,9.20
2018-09-19T01:15:47.676Z,9.00
2018-09-19T01:18:52.525Z,9.43
2018-09-19T01:21:57.202Z,9.40
2018-09-19T01:25:01.927Z,10.37
2018-09-19T01:28:06.555Z,9.30
2018-09-19T01:31:11.182Z,10.40
2018-09-19T01:34:15.992Z,8.73
2018-09-19T01:37:20.606Z,10.00
2018-09-19T01:40:25.426Z,10.73
2018-09-19T01:43:30.045Z,10.10
2018-09-19T01:46:35.098Z,10.37
2018-09-19T01:49:39.797Z,10.70
2018-09-19T01:52:44.644Z,10.43
2018-09-19T01:55:49.384Z,11.10
2018-09-19T01:58:54.001Z,10.83
2018-09-19T02:01:58.597Z,10.60
2018-09-19T02:05:03.264Z,10.53
2018-09-19T02:08:08.026Z,11.27
2018-09-19T02:11:12.820Z,10.97
2018-09-19T02:14:17.414Z,11.47
2018-09-19T02:17:22.099Z,11.20
2018-09-19T02:20:26.852Z,11.63
2018-09-19T02:23:31.523Z,10.77
2018-09-19T02:26:36.260Z,10.77
2018-09-19T02:29:40.990Z,11.33
2018-09-19T02:32:45.967Z,11.83
2018-09-19T02:35:50.542Z,11.07
2018-09-19T02:38:57.240Z,11.53
2018-09-19T02:42:02.123Z,11.03
2018-09-19T02:45:06.886Z,11.77
2018-09-19T02:48:11.540Z,11.80
2018-09-19T02:51:17.033Z,11.07
2018-09-19T02:54:21.787Z,10.80
2018-09-19T02:57:26.462Z,11.87
2018-09-19T03:00:31.219Z,11.50
2018-09-19T03:03:36.028Z,12.00
2018-09-19T03:06:40.716Z,10.67
2018-09-19T03:09:45.398Z,12.07
2018-09-19T03:12:50.415Z,11.47
2018-09-19T03:15:55.008Z,11.93
2018-09-19T03:18:59.614Z,11.40
2018-09-19T03:22:04.425Z,10.93
2018-09-19T03:25:09.005Z,11.53
2018-09-19T03:28:13.603Z,11.27
2018-09-19T03:31:18.301Z,11.17
2018-09-19T03:34:22.941Z,10.93
2018-09-19T03:37:27.702Z,11.27
2018-09-19T03:40:32.797Z,11.70
2018-09-19T03:43:37.341Z,11.57
2018-09-19T03:46:42.079Z,11.77
2018-09-19T03:49:46.689Z,12.47
2018-09-19T03:52:51.328Z,12.07
2018-09-19T03:55:56.118Z,11.23
2018-09-19T03:59:00.724Z,11.57
2018-09-19T04:02:05.382Z,12.33
2018-09-19T04:05:10.127Z,12.10
2018-09-19T04:08:14.761Z,12.73
2018-09-19T04:11:19.390Z,12.37
2018-09-19T04:14:23.962Z,12.90
2018-09-19T04:17:28.674Z,12.43
2018-09-19T04:20:33.442Z,12.43
2018-09-19T04:23:38.002Z,13.10
2018-09-19T04:26:42.606Z,12.50
2018-09-19T04:29:47.168Z,12.13
2018-09-19T04:32:51.801Z,14.27
2018-09-19T04:35:56.397Z,13.07
2018-09-19T04:39:00.949Z,14.17
2018-09-19T04:42:05.592Z,14.23
2018-09-19T04:45:10.247Z,14.00
2018-09-19T04:48:14.940Z,13.10
2018-09-19T04:51:19.793Z,13.83
2018-09-19T04:54:24.508Z,13.77
2018-09-19T04:57:29.173Z,13.33
2018-09-19T05:00:33.763Z,13.67
2018-09-19T05:03:38.420Z,13.70
2018-09-19T05:06:43.174Z,13.07
2018-09-19T05:09:47.759Z,13.40
2018-09-19T05:12:52.383Z,12.37
2018-09-19T05:15:56.989Z,13.07
2018-09-19T05:19:01.638Z,12.30
2018-09-19T05:22:06.232Z,13.10
2018-09-19T05:25:10.868Z,12.13
2018-09-19T05:28:15.784Z,11.90
2018-09-19T05:31:20.344Z,11.47
2018-09-19T05:34:25.031Z,11.03
2018-09-19T05:37:29.587Z,10.47
2018-09-19T05:40:34.219Z,10.57
2018-09-19T05:43:38.961Z,12.37
2018-09-19T05:46:43.593Z,11.73
2018-09-19T05:49:48.301Z,11.60
2018-09-19T05:52:53.173Z,11.70
2018-09-19T05:55:57.832Z,12.30
2018-09-19T05:59:02.469Z,11.67
2018-09-19T06:02:07.192Z,13.30
2018-09-19T06:05:11.907Z,11.93
2018-09-19T06:08:16.841Z,12.27
2018-09-19T06:11:21.603Z,12.00
2018-09-19T06:14:26.173Z,11.77
2018-09-19T06:17:31.184Z,11.90
2018-09-19T06:20:35.821Z,11.50
2018-09-19T06:23:40.463Z,12.10
2018-09-19T06:26:45.108Z,11.93
2018-09-19T06:29:49.692Z,12.10
2018-09-19T06:32:54.369Z,11.23
2018-09-19T06:35:58.888Z,11.77
2018-09-19T06:39:03.897Z,11.93
2018-09-19T06:42:08.564Z,11.83
2018-09-19T06:45:13.165Z,11.77
2018-09-19T06:48:17.828Z,12.40
2018-09-19T06:51:22.661Z,11.27
2018-09-19T06:54:27.373Z,11.03
2018-09-19T06:57:32.105Z,11.93
2018-09-19T07:00:36.742Z,12.00
2018-09-19T07:03:41.547Z,11.60
2018-09-19T07:06:46.165Z,11.57
2018-09-19T07:09:50.750Z,12.20
2018-09-19T07:12:55.355Z,11.83
2018-09-19T07:15:59.967Z,11.27
2018-09-19T07:19:04.764Z,11.57
2018-09-19T07:22:09.462Z,11.90
2018-09-19T07:25:14.112Z,12.13
2018-09-19T07:28:18.791Z,11.30
2018-09-19T07:31:23.356Z,11.00
2018-09-19T07:34:28.186Z,11.40
2018-09-19T07:37:32.781Z,12.83
2018-09-19T07:40:37.471Z,12.53
2018-09-19T07:43:42.407Z,11.03
2018-09-19T07:46:47.114Z,11.73
2018-09-19T07:49:51.835Z,12.57
2018-09-19T07:52:56.488Z,13.57
2018-09-19T07:56:01.201Z,11.40
2018-09-19T07:59:05.792Z,11.83
2018-09-19T08:02:10.754Z,11.40
2018-09-19T08:05:15.490Z,11.70
2018-09-19T08:08:20.440Z,11.00
2018-09-19T08:11:25.072Z,11.03
2018-09-19T08:14:29.693Z,11.83
2018-09-19T08:17:34.227Z,11.63
2018-09-19T08:20:38.944Z,11.07
2018-09-19T08:23:43.541Z,10.67
2018-09-19T08:26:48.167Z,10.07
2018-09-19T08:29:52.915Z,9.23
2018-09-19T08:32:57.744Z,9.43
2018-09-19T08:36:02.404Z,9.93
2018-09-19T08:39:09.788Z,9.57
2018-09-19T08:42:14.477Z,10.10
2018-09-19T08:45:19.437Z,8.40
2018-09-19T08:48:24.275Z,8.43
2018-09-19T08:51:28.876Z,8.30
2018-09-19T08:54:33.651Z,8.43
2018-09-19T08:57:38.315Z,8.17
2018-09-19T09:00:43.024Z,8.23
2018-09-19T09:03:47.718Z,7.80
2018-09-19T09:06:52.443Z,8.30
2018-09-19T09:09:57.064Z,6.90
2018-09-19T09:13:01.772Z,7.93
2018-09-19T09:16:06.636Z,5.93
2018-09-19T09:19:11.261Z,4.90
2018-09-19T09:22:15.895Z,4.83
2018-09-19T09:25:20.614Z,4.87
2018-09-19T09:28:25.279Z,4.60
2018-09-19T09:31:30.070Z,4.23
2018-09-19T09:34:34.670Z,4.43
2018-09-19T09:37:39.498Z,4.47
2018-09-19T09:40:44.080Z,4.10
2018-09-19T09:43:48.640Z,3.73
2018-09-19T09:46:53.298Z,4.30
2018-09-19T09:49:57.954Z,3.50
2018-09-19T09:53:02.696Z,3.57
2018-09-19T09:56:07.653Z,3.77
2018-09-19T09:59:12.360Z,3.70
2018-09-19T10:02:17.247Z,3.40
2018-09-19T10:05:22.299Z,3.87
2018-09-19T10:08:35.236Z,3.90
2018-09-19T10:11:40.671Z,3.90
2018-09-19T10:14:45.307Z,4.00
2018-09-19T10:17:49.967Z,3.40
2018-09-19T10:21:37.557Z,4.13
2018-09-19T10:24:42.352Z,3.87
2018-09-19T10:27:47.147Z,4.00
2018-09-19T10:30:51.759Z,3.30
2018-09-19T10:33:56.470Z,3.57
2018-09-19T10:37:01.321Z,3.40
2018-09-19T10:40:06.874Z,3.60
2018-09-19T10:43:11.524Z,3.37
2018-09-19T10:46:16.736Z,3.53
2018-09-19T10:49:21.578Z,3.20
2018-09-19T10:52:51.366Z,3.40
2018-09-19T10:55:56.539Z,2.97
2018-09-19T10:59:01.805Z,3.50
2018-09-19T11:02:06.715Z,3.47
2018-09-19T11:05:11.612Z,3.37
2018-09-19T11:08:16.620Z,3.00
2018-09-19T11:11:21.921Z,2.87
2018-09-19T11:14:26.507Z,3.13
2018-09-19T11:17:31.323Z,2.90
2018-09-19T11:20:35.852Z,2.70
2018-09-19T11:23:41.688Z,3.23
2018-09-19T11:26:46.486Z,2.50
2018-09-19T11:29:51.202Z,3.13
2018-09-19T11:32:55.813Z,2.90
2018-09-19T11:36:00.427Z,3.00
2018-09-19T11:39:08.533Z,2.80
2018-09-19T11:42:13.462Z,3.03
2018-09-19T11:45:18.013Z,2.60
2018-09-19T11:48:22.727Z,2.63
2018-09-19T11:51:27.347Z,2.70
2018-09-19T11:54:32.027Z,2.60
2018-09-19T11:57:36.676Z,3.20
2018-09-19T12:00:41.285Z,3.60
2018-09-19T12:03:45.828Z,2.53
2018-09-19T12:06:50.772Z,2.93
2018-09-19T12:09:55.455Z,2.30
2018-09-19T12:13:00.080Z,2.37
2018-09-19T12:16:04.761Z,2.20
2018-09-19T12:19:09.488Z,2.73
2018-09-19T12:22:14.142Z,2.47
2018-09-19T12:25:18.755Z,2.77
2018-09-19T12:28:23.364Z,2.60
2018-09-19T12:31:28.132Z,2.87
2018-09-19T12:34:32.695Z,3.00
2018-09-19T12:37:37.517Z,3.00
2018-09-19T12:40:42.179Z,2.97
2018-09-19T12:43:46.848Z,3.20
2018-09-19T12:46:51.466Z,3.00
2018-09-19T12:49:56.016Z,2.80
2018-09-19T12:53:01.887Z,3.33
2018-09-19T12:56:06.526Z,2.70
2018-09-19T12:59:11.284Z,2.40
2018-09-19T13:02:15.824Z,2.53
2018-09-19T13:05:20.470Z,2.60
2018-09-19T13:08:25.074Z,2.60
2018-09-19T13:11:29.741Z,2.97
2018-09-19T13:14:34.414Z,2.47
2018-09-19T13:17:39.136Z,2.70
2018-09-19T13:20:44.344Z,2.57
2018-09-19T13:23:49.021Z,2.47
2018-09-19T13:26:53.857Z,2.30
2018-09-19T13:29:58.457Z,2.90
2018-09-19T13:33:03.267Z,2.53
2018-09-19T13:36:07.900Z,2.60
2018-09-19T13:39:13.467Z,2.70
2018-09-19T13:42:18.088Z,2.60
2018-09-19T13:45:22.704Z,2.73
2018-09-19T13:48:27.940Z,2.50
2018-09-19T13:51:32.507Z,2.83
2018-09-19T13:54:37.209Z,2.90
2018-09-19T13:57:41.847Z,2.70
2018-09-19T14:00:46.395Z,2.37
2018-09-19T14:03:51.146Z,2.93
2018-09-19T14:06:55.863Z,2.50
2018-09-19T14:10:00.420Z,2.80
2018-09-19T14:13:47.417Z,2.67
2018-09-19T14:16:52.098Z,2.20
2018-09-19T14:19:56.645Z,2.60
2018-09-19T14:23:01.355Z,2.70
2018-09-19T14:26:06.106Z,2.20
2018-09-19T14:29:10.766Z,2.73
2018-09-19T14:32:15.389Z,2.67
2018-09-19T14:35:20.220Z,2.67
2018-09-19T14:38:25.010Z,2.40
2018-09-19T14:41:29.756Z,2.43
2018-09-19T14:44:34.308Z,2.27
2018-09-19T14:47:38.978Z,2.50
2018-09-19T14:50:44.459Z,2.60
2018-09-19T14:53:49.143Z,2.40
2018-09-19T14:56:53.816Z,2.30
2018-09-19T14:59:58.489Z,2.80
2018-09-19T15:03:03.191Z,2.60
2018-09-19T15:06:08.005Z,2.30
2018-09-19T15:09:12.747Z,2.20
2018-09-19T15:12:17.411Z,2.37
2018-09-19T15:15:22.122Z,2.33
2018-09-19T15:18:26.841Z,2.40
2018-09-19T15:21:31.982Z,2.57
2018-09-19T15:24:36.697Z,2.60
2018-09-19T15:27:41.228Z,2.57
2018-09-19T15:30:45.859Z,2.97
2018-09-19T15:33:50.483Z,2.53
2018-09-19T15:36:55.216Z,2.80
2018-09-19T15:39:59.980Z,2.73
2018-09-19T15:43:04.579Z,2.60
2018-09-19T15:46:09.218Z,2.90
2018-09-19T15:49:14.110Z,2.77
2018-09-19T15:52:18.763Z,3.00
2018-09-19T15:55:23.733Z,2.60
2018-09-19T15:58:28.577Z,2.40
2018-09-19T16:01:33.519Z,2.80
2018-09-19T16:04:38.268Z,2.77
2018-09-19T16:07:43.187Z,2.73
2018-09-19T16:10:48.415Z,2.77
2018-09-19T16:13:53.527Z,2.83
2018-09-19T16:16:58.525Z,2.87
2018-09-19T16:20:03.629Z,2.50
2018-09-19T16:23:08.563Z,2.80
2018-09-19T16:26:13.691Z,2.70
2018-09-19T16:29:18.672Z,2.30
2018-09-19T16:32:23.584Z,2.73
2018-09-19T16:35:28.541Z,2.63
2018-09-19T16:38:34.179Z,2.67
2018-09-19T16:41:38.813Z,2.50
2018-09-19T16:44:43.547Z,2.33
2018-09-19T16:47:48.278Z,3.07
2018-09-19T16:50:53.263Z,2.50
2018-09-19T16:53:59.458Z,3.00
2018-09-19T16:57:04.307Z,2.57
2018-09-19T17:00:09.641Z,2.77
2018-09-19T17:03:14.974Z,5.30
2018-09-19T17:06:19.736Z,4.37
2018-09-19T17:09:24.396Z,2.80
2018-09-19T17:12:29.089Z,2.83
2018-09-19T17:15:33.833Z,2.53
2018-09-19T17:18:38.361Z,2.90
2018-09-19T17:21:42.916Z,2.70
2018-09-19T17:24:47.667Z,3.00
2018-09-19T17:27:52.244Z,2.80
2018-09-19T17:30:57.255Z,2.93
2018-09-19T17:34:01.882Z,2.90
2018-09-19T17:37:06.813Z,2.53
2018-09-19T17:40:11.516Z,2.80
2018-09-19T17:43:16.145Z,2.77
2018-09-19T17:46:21.013Z,2.90
2018-09-19T17:49:25.729Z,3.70
2018-09-19T17:52:30.509Z,3.70
2018-09-19T17:55:35.185Z,3.17
2018-09-19T17:58:39.845Z,3.27
2018-09-19T18:01:44.689Z,3.10
2018-09-19T18:04:49.401Z,3.10
2018-09-19T18:07:54.065Z,3.50
2018-09-19T18:10:58.955Z,4.07
2018-09-19T18:14:03.834Z,4.80
2018-09-19T18:17:08.633Z,4.00
2018-09-19T18:20:13.492Z,3.90
2018-09-19T18:23:18.437Z,4.00
2018-09-19T18:26:23.344Z,4.27
2018-09-19T18:29:28.080Z,4.10
2018-09-19T18:32:33.199Z,3.73
2018-09-19T18:35:38.083Z,3.17
2018-09-19T18:38:42.775Z,3.80
2018-09-19T18:41:47.928Z,3.53
2018-09-19T18:44:52.989Z,3.20
2018-09-19T18:47:57.684Z,2.90
2018-09-19T18:51:02.526Z,3.27
2018-09-19T18:54:07.277Z,2.60
2018-09-19T18:57:12.215Z,3.00
2018-09-19T19:00:17.438Z,3.40
2018-09-19T19:03:22.100Z,3.57
2018-09-19T19:06:27.137Z,3.90
2018-09-19T19:09:31.758Z,3.50
2018-09-19T19:12:36.444Z,3.40
2018-09-19T19:15:41.234Z,3.57
2018-09-19T19:18:46.112Z,4.27
2018-09-19T19:21:50.925Z,3.77
2018-09-19T19:24:55.504Z,3.73
2018-09-19T19:28:00.332Z,3.93
2018-09-19T19:31:04.881Z,4.00
2018-09-19T19:34:09.480Z,4.10
2018-09-19T19:37:14.385Z,3.80
2018-09-19T19:40:19.029Z,4.30
2018-09-19T19:43:23.658Z,4.13
2018-09-19T19:46:28.542Z,4.40
2018-09-19T19:49:33.176Z,4.83
2018-09-19T19:52:38.069Z,4.37
2018-09-19T19:55:42.683Z,4.83
2018-09-19T19:58:47.427Z,4.60
2018-09-19T20:01:52.069Z,5.20
2018-09-19T20:04:57.695Z,4.70
2018-09-19T20:08:02.314Z,3.93
2018-09-19T20:11:07.471Z,3.97
2018-09-19T20:14:12.213Z,3.60
2018-09-19T20:17:17.594Z,3.80
2018-09-19T20:20:22.680Z,3.90
2018-09-19T20:23:27.428Z,3.80
2018-09-19T20:26:32.053Z,3.83
2018-09-19T20:29:36.670Z,3.87
2018-09-19T20:32:41.373Z,4.27
2018-09-19T20:35:46.231Z,4.80
2018-09-19T20:38:50.965Z,4.63
2018-09-19T20:41:57.598Z,4.40
2018-09-19T20:45:02.415Z,4.83
2018-09-19T20:48:07.058Z,4.60
2018-09-19T20:51:11.856Z,4.80
2018-09-19T20:54:16.966Z,4.43
2018-09-19T20:57:21.734Z,5.03
2018-09-19T21:00:26.311Z,4.57
2018-09-19T21:03:31.252Z,5.07
2018-09-19T21:06:35.861Z,4.47
2018-09-19T21:09:40.539Z,4.77
2018-09-19T21:12:45.119Z,4.87
2018-09-19T21:15:49.804Z,4.90
2018-09-19T21:18:54.461Z,4.30
2018-09-19T21:21:59.115Z,4.60
2018-09-19T21:25:03.740Z,4.20
2018-09-19T21:28:08.419Z,4.77
2018-09-19T21:31:12.987Z,4.13
2018-09-19T21:34:18.061Z,4.77
2018-09-19T21:37:22.902Z,4.30
2018-09-19T21:40:27.803Z,4.97
2018-09-19T21:43:32.365Z,4.87
2018-09-19T21:46:37.131Z,4.93
2018-09-19T21:49:41.766Z,4.47
2018-09-19T21:52:46.589Z,4.80
2018-09-19T21:55:51.289Z,4.63
2018-09-19T21:58:55.912Z,4.70
2018-09-19T22:02:01.588Z,5.20
2018-09-19T22:05:06.283Z,4.90
2018-09-19T22:08:10.979Z,5.60
2018-09-19T22:11:15.544Z,4.43
2018-09-19T22:14:20.541Z,5.20
2018-09-19T22:17:26.317Z,5.07
2018-09-19T22:20:30.969Z,5.33
2018-09-19T22:23:35.625Z,5.30
2018-09-19T22:26:40.505Z,5.37
2018-09-19T22:29:45.415Z,4.90
2018-09-19T22:32:50.406Z,5.07
2018-09-19T22:35:55.470Z,5.00
2018-09-19T22:39:00.152Z,5.10
2018-09-19T22:42:04.837Z,5.20
2018-09-19T22:45:09.572Z,5.37
2018-09-19T22:48:14.202Z,5.00
2018-09-19T22:51:19.035Z,4.93
2018-09-19T22:54:23.742Z,4.80
2018-09-19T22:57:28.390Z,5.07
2018-09-19T23:00:33.276Z,5.57
2018-09-19T23:03:38.218Z,4.93
2018-09-19T23:06:42.795Z,5.30
2018-09-19T23:09:47.342Z,5.60
2018-09-19T23:12:52.075Z,5.20
2018-09-19T23:15:56.817Z,5.00
2018-09-19T23:19:01.665Z,5.43
2018-09-19T23:22:06.439Z,5.47
2018-09-19T23:25:11.141Z,5.50
2018-09-19T23:28:15.776Z,5.40
2018-09-19T23:31:20.512Z,5.80
2018-09-19T23:34:25.407Z,5.90
2018-09-19T23:37:30.120Z,6.80
2018-09-19T23:40:35.624Z,6.00
2018-09-19T23:43:40.350Z,5.33
2018-09-19T23:46:44.973Z,6.30
2018-09-19T23:49:49.528Z,5.73
2018-09-19T23:52:54.221Z,5.60
2018-09-19T23:55:58.987Z,6.23
2018-09-19T23:59:03.547Z,5.63
